createdAt,value
2018-10-17T00:01:25.637Z,11.91
2018-10-17T00:03:53.338Z,12.05
2018-10-17T00:06:21.094Z,12.11
2018-10-17T00:08:48.835Z,12.24
2018-10-17T00:11:16.569Z,12.31
2018-10-17T00:13:44.282Z,12.26
2018-10-17T00:16:12.045Z,12.29
2018-10-17T00:18:39.755Z,12.26
2018-10-17T00:21:07.468Z,12.20
2018-10-17T00:23:35.309Z,12.19
2018-10-17T00:26:04.046Z,12.30
2018-10-17T00:28:32.167Z,12.02
2018-10-17T00:30:59.937Z,11.86
2018-10-17T00:33:27.625Z,11.82
2018-10-17T00:35:55.332Z,11.76
2018-10-17T00:38:23.154Z,11.66
2018-10-17T00:40:50.862Z,11.92
2018-10-17T00:43:18.653Z,12.01
2018-10-17T00:45:46.303Z,12.14
2018-10-17T00:48:14.009Z,12.15
2018-10-17T00:50:41.701Z,11.97
2018-10-17T00:53:09.478Z,11.65
2018-10-17T00:55:37.146Z,11.83
2018-10-17T00:58:05.040Z,12.04
2018-10-17T01:00:32.740Z,11.90
2018-10-17T01:03:00.454Z,11.98
2018-10-17T01:05:28.168Z,11.86
2018-10-17T01:07:55.877Z,11.96
2018-10-17T01:10:23.590Z,11.75
2018-10-17T01:12:51.328Z,11.66
2018-10-17T01:15:19.045Z,11.68
2018-10-17T01:17:46.754Z,11.51
2018-10-17T01:20:14.497Z,11.44
2018-10-17T01:22:42.257Z,11.76
2018-10-17T01:25:10.022Z,11.44
2018-10-17T01:27:37.698Z,11.54
2018-10-17T01:30:10.906Z,11.40
2018-10-17T01:32:38.597Z,11.52
2018-10-17T01:35:06.891Z,11.68
2018-10-17T01:37:34.653Z,11.75
2018-10-17T01:40:02.369Z,11.63
2018-10-17T01:42:30.076Z,11.55
2018-10-17T01:44:57.757Z,11.38
2018-10-17T01:47:25.464Z,11.32
2018-10-17T01:49:53.157Z,11.40
2018-10-17T01:52:20.851Z,11.56
2018-10-17T01:54:48.570Z,11.69
2018-10-17T01:57:16.269Z,11.69
2018-10-17T01:59:43.977Z,11.50
2018-10-17T02:02:11.677Z,11.69
2018-10-17T02:04:39.390Z,11.69
2018-10-17T02:07:07.167Z,11.88
2018-10-17T02:09:34.821Z,11.75
2018-10-17T02:12:02.549Z,11.50
2018-10-17T02:14:30.233Z,11.41
2018-10-17T02:16:57.956Z,11.37
2018-10-17T02:19:25.663Z,11.46
2018-10-17T02:21:53.362Z,11.33
2018-10-17T02:24:21.053Z,11.43
2018-10-17T02:26:48.789Z,11.15
2018-10-17T02:29:16.555Z,11.14
2018-10-17T02:31:44.225Z,11.12
2018-10-17T02:34:11.973Z,11.29
2018-10-17T02:36:39.682Z,11.30
2018-10-17T02:39:08.975Z,11.19
2018-10-17T02:41:36.762Z,11.19
2018-10-17T02:44:05.021Z,11.34
2018-10-17T02:46:32.742Z,11.27
2018-10-17T02:49:00.537Z,11.18
2018-10-17T02:51:28.271Z,10.98
2018-10-17T02:53:55.977Z,11.31
2018-10-17T02:56:23.702Z,11.01
2018-10-17T02:58:51.400Z,11.05
2018-10-17T03:01:19.152Z,11.09
2018-10-17T03:03:46.890Z,11.05
2018-10-17T03:06:14.594Z,10.97
2018-10-17T03:08:42.311Z,11.22
2018-10-17T03:11:10.230Z,11.32
2018-10-17T03:13:38.346Z,11.18
2018-10-17T03:16:06.066Z,11.25
2018-10-17T03:18:33.890Z,11.23
2018-10-17T03:21:01.635Z,11.13
2018-10-17T03:23:29.350Z,10.94
2018-10-17T03:25:57.057Z,10.97
2018-10-17T03:28:24.774Z,10.92
2018-10-17T03:30:52.493Z,10.75
2018-10-17T03:33:20.267Z,10.87
2018-10-17T03:35:48.026Z,11.02
2018-10-17T03:38:15.786Z,11.18
2018-10-17T03:40:43.569Z,11.03
2018-10-17T03:43:11.489Z,10.94
2018-10-17T03:45:39.154Z,10.97
2018-10-17T03:48:06.858Z,11.16
2018-10-17T03:50:35.389Z,11.29
2018-10-17T03:53:03.338Z,10.88
2018-10-17T03:55:31.105Z,10.86
2018-10-17T03:57:58.825Z,10.68
2018-10-17T04:00:26.540Z,10.70
2018-10-17T04:02:54.297Z,10.78
2018-10-17T04:05:21.986Z,10.57
2018-10-17T04:07:49.722Z,10.68
2018-10-17T04:10:17.406Z,10.65
2018-10-17T04:12:45.138Z,10.53
2018-10-17T04:15:12.882Z,10.57
2018-10-17T04:17:40.630Z,10.60
2018-10-17T04:20:08.347Z,10.82
2018-10-17T04:22:36.134Z,10.94
2018-10-17T04:25:15.482Z,10.76
2018-10-17T04:27:43.171Z,10.72
2018-10-17T04:30:10.882Z,10.65
2018-10-17T04:32:38.584Z,10.76
2018-10-17T04:35:06.380Z,10.90
2018-10-17T04:37:34.091Z,10.81
2018-10-17T04:40:01.809Z,10.77
2018-10-17T04:42:29.549Z,10.82
2018-10-17T04:44:57.254Z,10.89
2018-10-17T04:47:25.005Z,11.07
2018-10-17T04:49:52.723Z,11.04
2018-10-17T04:52:20.420Z,10.52
2018-10-17T04:54:48.162Z,10.48
2018-10-17T04:57:15.885Z,10.66
2018-10-17T04:59:43.598Z,10.60
2018-10-17T05:02:11.300Z,10.62
2018-10-17T05:04:39.083Z,10.60
2018-10-17T05:07:06.827Z,10.71
2018-10-17T05:09:34.554Z,10.83
2018-10-17T05:12:02.289Z,10.66
2018-10-17T05:14:30.014Z,10.58
2018-10-17T05:16:57.807Z,10.58
2018-10-17T05:19:25.664Z,10.67
2018-10-17T05:21:53.414Z,10.82
2018-10-17T05:24:21.117Z,11.00
2018-10-17T05:26:48.962Z,11.18
2018-10-17T05:29:16.968Z,11.26
2018-10-17T05:31:44.735Z,11.15
2018-10-17T05:34:12.526Z,11.26
2018-10-17T05:36:40.245Z,11.39
2018-10-17T05:39:08.369Z,11.47
2018-10-17T05:41:36.117Z,11.57
2018-10-17T05:44:04.110Z,11.63
2018-10-17T05:46:31.810Z,11.67
2018-10-17T05:48:59.561Z,11.82
2018-10-17T05:51:27.274Z,12.04
2018-10-17T05:53:55.020Z,12.21
2018-10-17T05:56:22.798Z,12.31
2018-10-17T05:58:50.551Z,12.37
2018-10-17T06:01:18.365Z,12.45
2018-10-17T06:03:46.051Z,12.54
2018-10-17T06:06:13.790Z,12.67
2018-10-17T06:08:41.497Z,12.73
2018-10-17T06:11:09.223Z,12.87
2018-10-17T06:13:36.938Z,13.03
2018-10-17T06:16:04.742Z,13.05
2018-10-17T06:18:32.446Z,13.11
2018-10-17T06:21:00.282Z,13.22
2018-10-17T06:23:28.022Z,13.39
2018-10-17T06:25:55.771Z,13.47
2018-10-17T06:28:23.535Z,13.54
2018-10-17T06:30:51.304Z,13.63
2018-10-17T06:33:19.145Z,13.69
2018-10-17T06:35:46.861Z,13.76
2018-10-17T06:38:14.714Z,13.80
2018-10-17T06:40:42.411Z,13.94
2018-10-17T06:43:10.178Z,14.05
2018-10-17T06:45:37.968Z,14.12
2018-10-17T06:48:05.935Z,14.14
2018-10-17T06:50:33.651Z,14.33
2018-10-17T06:53:01.367Z,14.40
2018-10-17T06:55:29.101Z,14.45
2018-10-17T06:57:57.641Z,14.52
2018-10-17T07:00:25.375Z,14.59
2018-10-17T07:02:53.103Z,14.73
2018-10-17T07:05:20.856Z,14.80
2018-10-17T07:07:48.598Z,14.90
2018-10-17T07:10:17.249Z,14.93
2018-10-17T07:12:44.961Z,14.93
2018-10-17T07:15:12.727Z,14.97
2018-10-17T07:17:40.450Z,15.20
2018-10-17T07:20:08.806Z,15.27
2018-10-17T07:22:36.517Z,15.37
2018-10-17T07:25:04.728Z,15.42
2018-10-17T07:27:32.401Z,15.47
2018-10-17T07:30:00.123Z,15.50
2018-10-17T07:32:27.876Z,15.65
2018-10-17T07:34:55.613Z,15.72
2018-10-17T07:37:23.325Z,15.79
2018-10-17T07:39:51.113Z,15.88
2018-10-17T07:42:18.931Z,16.01
2018-10-17T07:44:46.570Z,16.13
2018-10-17T07:47:14.303Z,16.18
2018-10-17T07:49:42.013Z,16.27
2018-10-17T07:52:09.799Z,16.26
2018-10-17T07:54:37.539Z,16.16
2018-10-17T07:57:05.738Z,16.33
2018-10-17T07:59:33.518Z,16.35
2018-10-17T08:02:01.222Z,16.42
2018-10-17T08:04:29.002Z,16.51
2018-10-17T08:06:56.713Z,16.62
2018-10-17T08:09:24.398Z,16.73
2018-10-17T08:11:52.116Z,16.82
2018-10-17T08:14:20.700Z,16.90
2018-10-17T08:16:48.435Z,16.94
2018-10-17T08:19:16.151Z,17.02
2018-10-17T08:21:43.872Z,17.14
2018-10-17T08:24:11.721Z,17.23
2018-10-17T08:26:39.447Z,17.15
2018-10-17T08:29:07.173Z,17.26
2018-10-17T08:31:34.886Z,17.43
2018-10-17T08:34:02.684Z,17.48
2018-10-17T08:36:30.631Z,17.42
2018-10-17T08:38:58.170Z,17.37
2018-10-17T08:41:25.923Z,17.54
2018-10-17T08:43:53.722Z,17.55
2018-10-17T08:46:21.411Z,17.39
2018-10-17T08:48:49.150Z,17.40
2018-10-17T08:51:16.870Z,17.31
2018-10-17T08:53:44.681Z,17.28
2018-10-17T08:56:12.467Z,17.31
2018-10-17T08:58:40.527Z,17.32
2018-10-17T09:01:08.370Z,17.28
2018-10-17T09:03:36.106Z,17.31
2018-10-17T09:06:03.842Z,17.32
2018-10-17T09:08:31.609Z,17.41
2018-10-17T09:10:59.334Z,17.46
2018-10-17T09:13:27.123Z,17.53
2018-10-17T09:15:54.818Z,17.54
2018-10-17T09:18:22.571Z,17.57
2018-10-17T09:20:50.542Z,17.53
2018-10-17T09:23:18.050Z,17.54
2018-10-17T09:25:45.878Z,17.57
2018-10-17T09:28:13.645Z,17.47
2018-10-17T09:30:41.411Z,17.44
2018-10-17T09:33:09.074Z,17.46
2018-10-17T09:35:36.821Z,17.48
2018-10-17T09:38:04.606Z,17.42
2018-10-17T09:40:32.333Z,17.50
2018-10-17T09:43:00.053Z,17.51
2018-10-17T09:45:27.766Z,17.48
2018-10-17T09:47:55.534Z,17.53
2018-10-17T09:50:23.309Z,17.58
2018-10-17T09:52:51.061Z,17.61
2018-10-17T09:55:18.807Z,17.65
2018-10-17T09:57:46.539Z,17.68
2018-10-17T10:00:19.990Z,17.74
2018-10-17T10:02:47.705Z,17.76
2018-10-17T10:05:15.442Z,17.87
2018-10-17T10:07:43.170Z,17.91
2018-10-17T10:10:10.933Z,17.92
2018-10-17T10:12:38.647Z,17.88
2018-10-17T10:15:06.451Z,17.92
2018-10-17T10:17:34.457Z,17.94
2018-10-17T10:20:02.197Z,17.98
2018-10-17T10:22:30.208Z,18.04
2018-10-17T10:24:58.045Z,18.18
2018-10-17T10:27:25.883Z,18.36
2018-10-17T10:29:53.729Z,18.55
2018-10-17T10:32:21.384Z,18.60
2018-10-17T10:34:49.155Z,18.37
2018-10-17T10:37:17.142Z,18.23
2018-10-17T10:39:44.875Z,18.13
2018-10-17T10:42:12.777Z,18.03
2018-10-17T10:44:40.562Z,17.95
2018-10-17T10:47:08.370Z,17.89
2018-10-17T10:49:36.102Z,17.83
2018-10-17T10:52:03.884Z,17.76
2018-10-17T10:54:31.587Z,17.76
2018-10-17T10:56:59.289Z,17.73
2018-10-17T10:59:27.182Z,17.66
2018-10-17T11:01:54.851Z,17.64
2018-10-17T11:04:22.577Z,17.61
2018-10-17T11:06:50.316Z,17.59
2018-10-17T11:09:18.055Z,17.58
2018-10-17T11:11:45.778Z,17.61
2018-10-17T11:14:13.621Z,17.57
2018-10-17T11:16:41.236Z,17.56
2018-10-17T11:19:08.961Z,17.54
2018-10-17T11:21:36.671Z,17.52
2018-10-17T11:24:04.629Z,17.46
2018-10-17T11:26:32.350Z,17.47
2018-10-17T11:29:00.117Z,17.46
2018-10-17T11:31:27.925Z,17.48
2018-10-17T11:33:55.637Z,17.45
2018-10-17T11:36:23.376Z,17.44
2018-10-17T11:38:51.136Z,17.44
2018-10-17T11:41:19.008Z,17.44
2018-10-17T11:43:46.621Z,17.47
2018-10-17T11:46:14.447Z,17.42
2018-10-17T11:48:42.162Z,17.47
2018-10-17T11:51:09.923Z,17.46
2018-10-17T11:53:37.680Z,17.43
2018-10-17T11:56:05.594Z,17.41
2018-10-17T11:58:33.490Z,17.45
2018-10-17T12:01:01.376Z,17.42
2018-10-17T12:03:29.467Z,17.38
2018-10-17T12:05:57.464Z,17.37
2018-10-17T12:08:25.179Z,17.35
2018-10-17T12:10:53.054Z,17.30
2018-10-17T12:13:20.919Z,17.28
2018-10-17T12:15:48.785Z,17.28
2018-10-17T12:18:16.779Z,17.27
2018-10-17T12:20:44.623Z,17.27
2018-10-17T12:23:12.526Z,17.23
2018-10-17T12:25:40.425Z,17.20
2018-10-17T12:28:08.405Z,17.13
2018-10-17T12:30:36.182Z,17.13
2018-10-17T12:33:04.172Z,17.12
2018-10-17T12:35:32.102Z,17.10
2018-10-17T12:37:59.985Z,17.09
2018-10-17T12:40:27.905Z,17.03
2018-10-17T12:42:55.763Z,17.04
2018-10-17T12:45:23.683Z,17.05
2018-10-17T12:47:51.663Z,16.99
2018-10-17T12:50:19.670Z,16.98
2018-10-17T12:52:47.545Z,17.00
2018-10-17T12:55:15.439Z,16.95
2018-10-17T12:57:43.314Z,16.96
2018-10-17T13:00:11.262Z,16.98
2018-10-17T13:02:39.503Z,17.62
2018-10-17T13:05:08.628Z,17.53
2018-10-17T13:07:36.534Z,17.15
2018-10-17T13:10:04.902Z,17.09
2018-10-17T13:12:32.782Z,17.15
2018-10-17T13:15:00.720Z,17.02
2018-10-17T13:17:28.649Z,16.89
2018-10-17T13:19:56.527Z,16.85
2018-10-17T13:22:24.387Z,16.80
2018-10-17T13:24:52.284Z,16.87
2018-10-17T13:27:20.158Z,16.92
2018-10-17T13:29:48.042Z,16.93
2018-10-17T13:32:15.986Z,16.93
2018-10-17T13:34:43.902Z,17.35
2018-10-17T13:37:11.870Z,17.62
2018-10-17T13:39:39.719Z,17.77
2018-10-17T13:42:07.680Z,17.42
2018-10-17T13:44:35.560Z,17.49
2018-10-17T13:47:03.571Z,17.73
2018-10-17T13:49:31.566Z,17.35
2018-10-17T13:51:59.447Z,17.21
2018-10-17T13:54:27.360Z,17.19
2018-10-17T13:56:55.286Z,17.18
2018-10-17T13:59:23.369Z,17.12
2018-10-17T14:01:51.135Z,17.10
2018-10-17T14:04:19.019Z,17.02
2018-10-17T14:06:46.899Z,17.02
2018-10-17T14:09:14.855Z,17.04
2018-10-17T14:11:42.886Z,17.04
2018-10-17T14:14:10.670Z,17.00
2018-10-17T14:16:38.555Z,17.00
2018-10-17T14:19:06.444Z,17.01
2018-10-17T14:21:34.314Z,17.01
2018-10-17T14:24:02.208Z,17.02
2018-10-17T14:26:30.093Z,17.04
2018-10-17T14:28:57.985Z,17.03
2018-10-17T14:31:25.866Z,17.00
2018-10-17T14:33:53.771Z,17.03
2018-10-17T14:36:21.680Z,17.03
2018-10-17T14:38:49.558Z,17.03
2018-10-17T14:41:17.539Z,17.03
2018-10-17T14:43:45.415Z,16.98
2018-10-17T14:46:13.290Z,16.98
2018-10-17T14:48:41.174Z,16.93
2018-10-17T14:51:09.086Z,16.93
2018-10-17T14:53:36.989Z,16.94
2018-10-17T14:56:04.992Z,16.90
2018-10-17T14:58:33.182Z,16.87
2018-10-17T15:01:01.060Z,16.89
2018-10-17T15:03:28.960Z,16.89
2018-10-17T15:05:57.214Z,16.85
2018-10-17T15:08:25.075Z,16.85
2018-10-17T15:10:53.194Z,16.78
2018-10-17T15:13:20.870Z,16.83
2018-10-17T15:15:48.783Z,16.85
2018-10-17T15:18:17.139Z,17.65
2018-10-17T15:20:44.967Z,17.29
2018-10-17T15:23:13.268Z,17.05
2018-10-17T15:25:41.019Z,16.91
2018-10-17T15:28:08.726Z,16.82
2018-10-17T15:30:36.442Z,16.79
2018-10-17T15:33:04.386Z,16.64
2018-10-17T15:35:32.211Z,16.64
2018-10-17T15:37:59.979Z,16.64
2018-10-17T15:40:27.712Z,16.62
2018-10-17T15:42:55.473Z,16.61
2018-10-17T15:45:23.208Z,16.48
2018-10-17T15:47:50.992Z,16.52
2018-10-17T15:50:18.747Z,16.42
2018-10-17T15:52:46.463Z,16.39
2018-10-17T15:55:14.197Z,16.40
2018-10-17T15:57:41.986Z,16.42
2018-10-17T16:00:10.742Z,16.21
2018-10-17T16:02:38.513Z,16.15
2018-10-17T16:05:08.391Z,16.26
2018-10-17T16:07:36.111Z,16.22
2018-10-17T16:10:03.935Z,16.20
2018-10-17T16:12:31.687Z,16.14
2018-10-17T16:14:59.507Z,15.99
2018-10-17T16:17:27.299Z,15.90
2018-10-17T16:19:55.053Z,15.99
2018-10-17T16:22:22.777Z,15.96
2018-10-17T16:24:50.516Z,15.93
2018-10-17T16:27:18.329Z,15.91
2018-10-17T16:29:46.071Z,15.81
2018-10-17T16:32:13.827Z,15.81
2018-10-17T16:34:41.579Z,15.85
2018-10-17T16:37:09.318Z,15.74
2018-10-17T16:39:37.047Z,15.65
2018-10-17T16:42:05.324Z,15.74
2018-10-17T16:44:33.043Z,15.74
2018-10-17T16:47:00.783Z,15.78
2018-10-17T16:49:28.534Z,15.78
2018-10-17T16:51:56.319Z,15.73
2018-10-17T16:54:24.266Z,15.69
2018-10-17T16:56:52.052Z,15.79
2018-10-17T16:59:19.786Z,15.62
2018-10-17T17:01:47.566Z,15.60
2018-10-17T17:04:15.287Z,15.68
2018-10-17T17:06:43.037Z,15.72
2018-10-17T17:09:11.492Z,15.68
2018-10-17T17:11:39.232Z,15.73
2018-10-17T17:14:07.010Z,15.63
2018-10-17T17:16:34.857Z,15.57
2018-10-17T17:19:02.623Z,15.62
2018-10-17T17:21:30.371Z,15.65
2018-10-17T17:23:58.163Z,15.65
2018-10-17T17:26:25.916Z,15.71
2018-10-17T17:28:53.617Z,15.60
2018-10-17T17:31:21.375Z,15.46
2018-10-17T17:33:49.111Z,15.54
2018-10-17T17:36:16.876Z,15.49
2018-10-17T17:38:44.693Z,15.50
2018-10-17T17:41:12.410Z,15.43
2018-10-17T17:43:40.157Z,15.33
2018-10-17T17:46:07.958Z,15.41
2018-10-17T17:48:35.621Z,15.45
2018-10-17T17:51:03.368Z,15.38
2018-10-17T17:53:31.085Z,15.40
2018-10-17T17:55:58.815Z,15.49
2018-10-17T17:58:26.928Z,15.36
2018-10-17T18:00:54.583Z,15.42
2018-10-17T18:03:22.307Z,15.49
2018-10-17T18:05:50.031Z,15.61
2018-10-17T18:08:17.880Z,15.62
2018-10-17T18:10:45.925Z,15.58
2018-10-17T18:13:13.618Z,15.56
2018-10-17T18:15:41.325Z,15.33
2018-10-17T18:18:09.065Z,15.33
2018-10-17T18:20:36.802Z,15.32
2018-10-17T18:23:05.215Z,15.34
2018-10-17T18:25:33.202Z,15.25
2018-10-17T18:28:01.112Z,15.23
2018-10-17T18:30:28.758Z,15.23
2018-10-17T18:32:57.266Z,15.21
2018-10-17T18:35:25.089Z,15.15
2018-10-17T18:37:52.795Z,15.12
2018-10-17T18:40:20.514Z,15.08
2018-10-17T18:42:48.249Z,15.04
2018-10-17T18:45:16.025Z,15.02
2018-10-17T18:47:43.767Z,15.01
2018-10-17T18:50:11.657Z,14.96
2018-10-17T18:52:39.386Z,14.99
2018-10-17T18:55:07.835Z,14.96
2018-10-17T18:57:35.548Z,15.06
2018-10-17T19:00:03.446Z,15.10
2018-10-17T19:02:31.153Z,15.00
2018-10-17T19:04:58.862Z,14.96
2018-10-17T19:07:26.572Z,15.05
2018-10-17T19:09:54.334Z,15.01
2018-10-17T19:12:22.107Z,14.95
2018-10-17T19:14:49.838Z,14.89
2018-10-17T19:17:17.546Z,14.84
2018-10-17T19:19:45.258Z,14.88
2018-10-17T19:22:13.023Z,14.85
2018-10-17T19:24:40.845Z,14.79
2018-10-17T19:27:08.662Z,14.83
2018-10-17T19:29:36.360Z,14.87
2018-10-17T19:32:04.238Z,14.93
2018-10-17T19:34:31.954Z,14.90
2018-10-17T19:36:59.693Z,14.92
2018-10-17T19:39:27.417Z,14.88
2018-10-17T19:41:55.194Z,14.90
2018-10-17T19:44:22.926Z,14.85
2018-10-17T19:46:50.674Z,14.88
2018-10-17T19:49:18.418Z,14.78
2018-10-17T19:51:46.152Z,14.71
2018-10-17T19:54:13.870Z,14.74
2018-10-17T19:56:41.669Z,14.74
2018-10-17T19:59:09.377Z,14.75
2018-10-17T20:01:37.162Z,14.75
2018-10-17T20:04:05.120Z,14.78
2018-10-17T20:06:32.874Z,14.66
2018-10-17T20:09:00.649Z,14.73
2018-10-17T20:11:28.366Z,14.82
2018-10-17T20:13:56.081Z,14.83
2018-10-17T20:16:23.823Z,14.84
2018-10-17T20:18:51.530Z,14.78
2018-10-17T20:21:19.309Z,14.61
2018-10-17T20:23:47.019Z,14.64
2018-10-17T20:26:14.803Z,14.74
2018-10-17T20:28:42.520Z,14.81
2018-10-17T20:31:10.267Z,14.78
2018-10-17T20:33:38.001Z,14.71
2018-10-17T20:36:06.039Z,14.67
2018-10-17T20:38:34.082Z,14.63
2018-10-17T20:41:01.766Z,14.62
2018-10-17T20:43:29.473Z,14.70
2018-10-17T20:45:57.202Z,14.50
2018-10-17T20:48:24.892Z,14.48
2018-10-17T20:50:52.593Z,14.53
2018-10-17T20:53:20.314Z,14.54
2018-10-17T20:55:48.075Z,14.47
2018-10-17T20:58:15.890Z,14.54
2018-10-17T21:00:43.571Z,14.55
2018-10-17T21:03:11.303Z,14.71
2018-10-17T21:05:39.026Z,14.75
2018-10-17T21:08:06.737Z,14.45
2018-10-17T21:10:34.462Z,14.47
2018-10-17T21:13:02.270Z,14.49
2018-10-17T21:15:29.977Z,14.40
2018-10-17T21:17:57.714Z,14.55
2018-10-17T21:20:25.414Z,14.50
2018-10-17T21:22:53.130Z,14.51
2018-10-17T21:25:20.838Z,14.52
2018-10-17T21:27:48.589Z,14.55
2018-10-17T21:30:16.421Z,14.49
2018-10-17T21:32:44.136Z,14.46
2018-10-17T21:35:11.845Z,14.41
2018-10-17T21:37:39.577Z,14.41
2018-10-17T21:40:07.301Z,14.49
2018-10-17T21:42:35.007Z,14.57
2018-10-17T21:45:02.784Z,14.68
2018-10-17T21:47:30.615Z,14.47
2018-10-17T21:49:58.243Z,14.63
2018-10-17T21:52:25.947Z,14.55
2018-10-17T21:54:53.667Z,14.52
2018-10-17T21:57:22.512Z,14.35
2018-10-17T21:59:50.225Z,14.40
2018-10-17T22:02:17.980Z,14.53
2018-10-17T22:04:45.721Z,14.36
2018-10-17T22:07:13.442Z,14.43
2018-10-17T22:09:41.343Z,14.43
2018-10-17T22:12:09.086Z,14.43
2018-10-17T22:14:36.821Z,14.40
2018-10-17T22:17:06.574Z,14.37
2018-10-17T22:19:35.368Z,14.28
2018-10-17T22:22:03.129Z,14.34
2018-10-17T22:24:30.866Z,14.27
2018-10-17T22:26:58.596Z,14.35
2018-10-17T22:29:26.346Z,14.36
2018-10-17T22:31:54.142Z,14.44
2018-10-17T22:34:21.967Z,14.43
2018-10-17T22:36:49.701Z,14.41
2018-10-17T22:39:17.412Z,14.34
2018-10-17T22:41:45.530Z,14.28
2018-10-17T22:44:13.308Z,14.32
2018-10-17T22:46:41.469Z,14.31
2018-10-17T22:49:10.057Z,14.27
2018-10-17T22:51:38.421Z,14.31
2018-10-17T22:54:06.822Z,14.07
2018-10-17T22:56:34.536Z,14.10
2018-10-17T22:59:02.254Z,14.24
2018-10-17T23:01:29.955Z,14.06
2018-10-17T23:03:57.675Z,13.86
2018-10-17T23:06:25.405Z,13.81
2018-10-17T23:08:53.176Z,13.92
2018-10-17T23:11:20.898Z,13.98
2018-10-17T23:13:48.643Z,13.99
2018-10-17T23:16:16.378Z,13.91
2018-10-17T23:18:44.085Z,13.88
2018-10-17T23:21:11.793Z,13.73
2018-10-17T23:23:39.527Z,13.66
2018-10-17T23:26:07.649Z,13.79
2018-10-17T23:28:35.610Z,13.95
2018-10-17T23:31:03.407Z,13.89
2018-10-17T23:33:31.147Z,13.76
2018-10-17T23:35:58.852Z,13.62
2018-10-17T23:38:26.571Z,13.62
2018-10-17T23:40:54.274Z,13.62
2018-10-17T23:43:22.002Z,13.66
2018-10-17T23:45:49.707Z,13.62
2018-10-17T23:48:17.481Z,13.45
2018-10-17T23:50:45.171Z,13.66
2018-10-17T23:53:12.878Z,13.71
2018-10-17T23:55:40.627Z,13.82
2018-10-17T23:58:08.385Z,13.77
